sensor_id;sensor_type;location;lat;lon;timestamp;temperature;humidity
16392;DHT22;8305;-33.882;151.134;2023-04-06T00:01:39;19.30;99.90
16392;DHT22;8305;-33.882;151.134;2023-04-06T00:04:10;19.30;99.90
16392;DHT22;8305;-33.882;151.134;2023-04-06T00:06:41;19.30;99.90
16392;DHT22;8305;-33.882;151.134;2023-04-06T00:09:14;19.30;99.90
16392;DHT22;8305;-33.882;151.134;2023-04-06T00:11:45;19.30;99.90
16392;DHT22;8305;-33.882;151.134;2023-04-06T00:14:16;19.30;99.90
16392;DHT22;8305;-33.882;151.134;2023-04-06T00:16:48;19.30;99.90
16392;DHT22;8305;-33.882;151.134;2023-04-06T00:19:19;19.30;99.90
16392;DHT22;8305;-33.882;151.134;2023-04-06T00:21:51;19.30;99.90
16392;DHT22;8305;-33.882;151.134;2023-04-06T00:24:24;19.30;99.90
16392;DHT22;8305;-33.882;151.134;2023-04-06T00:26:55;19.30;99.90
16392;DHT22;8305;-33.882;151.134;2023-04-06T00:29:26;19.30;99.90
16392;DHT22;8305;-33.882;151.134;2023-04-06T00:31:57;19.30;99.90
16392;DHT22;8305;-33.882;151.134;2023-04-06T00:34:27;19.30;99.90
16392;DHT22;8305;-33.882;151.134;2023-04-06T00:36:58;19.20;99.90
16392;DHT22;8305;-33.882;151.134;2023-04-06T00:39:31;19.20;99.90
16392;DHT22;8305;-33.882;151.134;2023-04-06T00:42:01;19.20;99.90
16392;DHT22;8305;-33.882;151.134;2023-04-06T00:44:37;19.30;99.90
16392;DHT22;8305;-33.882;151.134;2023-04-06T00:47:08;19.30;99.90
16392;DHT22;8305;-33.882;151.134;2023-04-06T00:49:39;19.30;99.90
16392;DHT22;8305;-33.882;151.134;2023-04-06T00:52:10;19.30;99.90
16392;DHT22;8305;-33.882;151.134;2023-04-06T00:54:43;19.40;99.90
16392;DHT22;8305;-33.882;151.134;2023-04-06T00:57:14;19.40;99.90
16392;DHT22;8305;-33.882;151.134;2023-04-06T00:59:45;19.40;99.90
16392;DHT22;8305;-33.882;151.134;2023-04-06T01:02:16;19.50;99.90
16392;DHT22;8305;-33.882;151.134;2023-04-06T01:04:47;19.50;99.90
16392;DHT22;8305;-33.882;151.134;2023-04-06T01:07:17;19.60;99.90
16392;DHT22;8305;-33.882;151.134;2023-04-06T01:09:50;19.60;99.90
16392;DHT22;8305;-33.882;151.134;2023-04-06T01:12:20;19.60;99.90
16392;DHT22;8305;-33.882;151.134;2023-04-06T01:14:51;19.70;99.90
16392;DHT22;8305;-33.882;151.134;2023-04-06T01:17:22;19.70;99.90
16392;DHT22;8305;-33.882;151.134;2023-04-06T01:19:52;19.80;99.90
16392;DHT22;8305;-33.882;151.134;2023-04-06T01:22:25;19.80;99.90
16392;DHT22;8305;-33.882;151.134;2023-04-06T01:24:56;19.90;99.90
16392;DHT22;8305;-33.882;151.134;2023-04-06T01:27:26;19.90;99.90
16392;DHT22;8305;-33.882;151.134;2023-04-06T01:29:57;20.00;99.90
16392;DHT22;8305;-33.882;151.134;2023-04-06T01:32:28;20.00;99.90
16392;DHT22;8305;-33.882;151.134;2023-04-06T01:34:58;20.00;99.90
16392;DHT22;8305;-33.882;151.134;2023-04-06T01:37:31;20.00;99.90
16392;DHT22;8305;-33.882;151.134;2023-04-06T01:40:02;20.00;99.90
16392;DHT22;8305;-33.882;151.134;2023-04-06T01:42:32;20.00;99.90
16392;DHT22;8305;-33.882;151.134;2023-04-06T01:45:03;20.00;99.90
16392;DHT22;8305;-33.882;151.134;2023-04-06T01:47:34;20.00;99.90
16392;DHT22;8305;-33.882;151.134;2023-04-06T01:50:05;20.00;99.90
16392;DHT22;8305;-33.882;151.134;2023-04-06T01:52:38;20.00;99.90
16392;DHT22;8305;-33.882;151.134;2023-04-06T01:55:09;20.10;99.90
16392;DHT22;8305;-33.882;151.134;2023-04-06T01:57:39;20.10;99.90
16392;DHT22;8305;-33.882;151.134;2023-04-06T02:00:11;20.10;99.90
16392;DHT22;8305;-33.882;151.134;2023-04-06T02:02:42;20.20;99.90
16392;DHT22;8305;-33.882;151.134;2023-04-06T02:05:12;20.20;99.90
16392;DHT22;8305;-33.882;151.134;2023-04-06T02:07:45;20.30;99.90
16392;DHT22;8305;-33.882;151.134;2023-04-06T02:10:17;20.40;99.90
16392;DHT22;8305;-33.882;151.134;2023-04-06T02:12:48;20.40;99.90
16392;DHT22;8305;-33.882;151.134;2023-04-06T02:15:20;20.50;99.90
16392;DHT22;8305;-33.882;151.134;2023-04-06T02:17:51;20.60;99.90
16392;DHT22;8305;-33.882;151.134;2023-04-06T02:20:22;20.70;99.90
16392;DHT22;8305;-33.882;151.134;2023-04-06T02:22:56;20.70;99.90
16392;DHT22;8305;-33.882;151.134;2023-04-06T02:25:27;20.90;99.90
16392;DHT22;8305;-33.882;151.134;2023-04-06T02:27:59;21.00;99.90
16392;DHT22;8305;-33.882;151.134;2023-04-06T02:30:30;21.00;99.90
16392;DHT22;8305;-33.882;151.134;2023-04-06T02:33:01;21.10;99.90
16392;DHT22;8305;-33.882;151.134;2023-04-06T02:35:33;21.20;99.90
16392;DHT22;8305;-33.882;151.134;2023-04-06T02:38:06;21.20;99.90
16392;DHT22;8305;-33.882;151.134;2023-04-06T02:40:37;21.40;99.90
16392;DHT22;8305;-33.882;151.134;2023-04-06T02:43:08;21.50;99.90
16392;DHT22;8305;-33.882;151.134;2023-04-06T02:45:39;21.50;99.90
16392;DHT22;8305;-33.882;151.134;2023-04-06T02:48:10;21.60;99.90
16392;DHT22;8305;-33.882;151.134;2023-04-06T02:50:41;21.70;99.90
16392;DHT22;8305;-33.882;151.134;2023-04-06T02:53:15;21.70;99.90
16392;DHT22;8305;-33.882;151.134;2023-04-06T02:55:46;21.70;99.90
16392;DHT22;8305;-33.882;151.134;2023-04-06T02:58:17;21.70;99.90
16392;DHT22;8305;-33.882;151.134;2023-04-06T03:00:48;21.70;99.90
16392;DHT22;8305;-33.882;151.134;2023-04-06T03:03:19;21.70;99.90
16392;DHT22;8305;-33.882;151.134;2023-04-06T03:05:50;21.60;99.90
16392;DHT22;8305;-33.882;151.134;2023-04-06T03:08:24;21.60;99.90
16392;DHT22;8305;-33.882;151.134;2023-04-06T03:10:55;21.60;99.90
16392;DHT22;8305;-33.882;151.134;2023-04-06T03:13:26;21.50;99.90
16392;DHT22;8305;-33.882;151.134;2023-04-06T03:15:57;21.60;99.90
16392;DHT22;8305;-33.882;151.134;2023-04-06T03:18:28;21.60;99.90
16392;DHT22;8305;-33.882;151.134;2023-04-06T03:21:00;21.60;99.90
16392;DHT22;8305;-33.882;151.134;2023-04-06T03:23:33;21.60;99.90
16392;DHT22;8305;-33.882;151.134;2023-04-06T03:26:04;21.70;99.90
16392;DHT22;8305;-33.882;151.134;2023-04-06T03:28:35;21.80;99.90
16392;DHT22;8305;-33.882;151.134;2023-04-06T03:31:06;21.80;99.90
16392;DHT22;8305;-33.882;151.134;2023-04-06T03:33:37;21.80;99.90
16392;DHT22;8305;-33.882;151.134;2023-04-06T03:36:09;21.80;99.90
16392;DHT22;8305;-33.882;151.134;2023-04-06T03:38:42;21.80;99.90
16392;DHT22;8305;-33.882;151.134;2023-04-06T03:41:13;21.90;99.90
16392;DHT22;8305;-33.882;151.134;2023-04-06T03:43:44;22.00;99.90
16392;DHT22;8305;-33.882;151.134;2023-04-06T03:46:15;21.90;99.90
16392;DHT22;8305;-33.882;151.134;2023-04-06T03:48:47;22.00;99.90
16392;DHT22;8305;-33.882;151.134;2023-04-06T03:51:19;21.90;99.90
16392;DHT22;8305;-33.882;151.134;2023-04-06T03:53:52;21.90;99.90
16392;DHT22;8305;-33.882;151.134;2023-04-06T03:56:23;21.90;99.90
16392;DHT22;8305;-33.882;151.134;2023-04-06T03:58:54;21.90;99.90
16392;DHT22;8305;-33.882;151.134;2023-04-06T04:01:25;21.90;99.90
16392;DHT22;8305;-33.882;151.134;2023-04-06T04:03:56;21.90;99.90
16392;DHT22;8305;-33.882;151.134;2023-04-06T04:06:28;21.90;99.90
16392;DHT22;8305;-33.882;151.134;2023-04-06T04:09:01;21.80;99.90
16392;DHT22;8305;-33.882;151.134;2023-04-06T04:11:32;21.80;99.90
16392;DHT22;8305;-33.882;151.134;2023-04-06T04:14:03;21.70;99.90
16392;DHT22;8305;-33.882;151.134;2023-04-06T04:16:34;21.70;99.90
16392;DHT22;8305;-33.882;151.134;2023-04-06T04:19:07;21.70;99.90
16392;DHT22;8305;-33.882;151.134;2023-04-06T04:21:45;21.70;99.90
16392;DHT22;8305;-33.882;151.134;2023-04-06T04:24:18;21.60;99.90
16392;DHT22;8305;-33.882;151.134;2023-04-06T04:26:49;21.60;99.90
16392;DHT22;8305;-33.882;151.134;2023-04-06T04:29:20;21.60;99.90
16392;DHT22;8305;-33.882;151.134;2023-04-06T04:31:52;21.60;99.90
16392;DHT22;8305;-33.882;151.134;2023-04-06T04:34:23;21.60;99.90
16392;DHT22;8305;-33.882;151.134;2023-04-06T04:36:54;21.60;99.90
16392;DHT22;8305;-33.882;151.134;2023-04-06T04:39:27;21.70;99.90
16392;DHT22;8305;-33.882;151.134;2023-04-06T04:41:59;21.70;99.90
16392;DHT22;8305;-33.882;151.134;2023-04-06T04:44:30;21.80;99.90
16392;DHT22;8305;-33.882;151.134;2023-04-06T04:47:01;21.80;99.90
16392;DHT22;8305;-33.882;151.134;2023-04-06T04:49:32;21.80;99.90
16392;DHT22;8305;-33.882;151.134;2023-04-06T04:52:03;21.90;99.90
16392;DHT22;8305;-33.882;151.134;2023-04-06T04:54:36;21.90;99.90
16392;DHT22;8305;-33.882;151.134;2023-04-06T04:57:09;21.90;99.90
16392;DHT22;8305;-33.882;151.134;2023-04-06T04:59:40;21.90;99.90
16392;DHT22;8305;-33.882;151.134;2023-04-06T05:02:11;21.90;99.90
16392;DHT22;8305;-33.882;151.134;2023-04-06T05:04:42;21.80;99.90
16392;DHT22;8305;-33.882;151.134;2023-04-06T05:07:13;21.80;99.90
16392;DHT22;8305;-33.882;151.134;2023-04-06T05:09:48;21.80;99.90
16392;DHT22;8305;-33.882;151.134;2023-04-06T05:12:19;21.80;99.90
16392;DHT22;8305;-33.882;151.134;2023-04-06T05:14:51;21.80;99.90
16392;DHT22;8305;-33.882;151.134;2023-04-06T05:17:22;21.70;99.90
16392;DHT22;8305;-33.882;151.134;2023-04-06T05:19:54;21.70;99.90
16392;DHT22;8305;-33.882;151.134;2023-04-06T05:22:25;21.80;99.90
16392;DHT22;8305;-33.882;151.134;2023-04-06T05:24:58;21.80;99.90
16392;DHT22;8305;-33.882;151.134;2023-04-06T05:27:29;21.80;99.90
16392;DHT22;8305;-33.882;151.134;2023-04-06T05:30:00;21.90;99.90
16392;DHT22;8305;-33.882;151.134;2023-04-06T05:32:31;21.90;99.90
16392;DHT22;8305;-33.882;151.134;2023-04-06T05:35:03;21.90;99.90
16392;DHT22;8305;-33.882;151.134;2023-04-06T05:37:34;21.90;99.90
16392;DHT22;8305;-33.882;151.134;2023-04-06T05:40:08;21.80;99.90
16392;DHT22;8305;-33.882;151.134;2023-04-06T05:42:40;21.80;99.90
16392;DHT22;8305;-33.882;151.134;2023-04-06T05:45:11;21.80;99.90
16392;DHT22;8305;-33.882;151.134;2023-04-06T05:47:44;21.70;99.90
16392;DHT22;8305;-33.882;151.134;2023-04-06T05:50:16;21.70;99.90
16392;DHT22;8305;-33.882;151.134;2023-04-06T05:52:47;21.70;99.90
16392;DHT22;8305;-33.882;151.134;2023-04-06T05:55:20;21.70;99.90
16392;DHT22;8305;-33.882;151.134;2023-04-06T05:57:51;21.70;99.90
16392;DHT22;8305;-33.882;151.134;2023-04-06T06:00:23;21.70;99.90
16392;DHT22;8305;-33.882;151.134;2023-04-06T06:02:54;21.70;99.90
16392;DHT22;8305;-33.882;151.134;2023-04-06T06:05:25;21.60;99.90
16392;DHT22;8305;-33.882;151.134;2023-04-06T06:07:56;21.60;99.90
16392;DHT22;8305;-33.882;151.134;2023-04-06T06:10:31;21.60;99.90
16392;DHT22;8305;-33.882;151.134;2023-04-06T06:13:03;21.60;99.90
16392;DHT22;8305;-33.882;151.134;2023-04-06T06:15:34;21.60;99.90
16392;DHT22;8305;-33.882;151.134;2023-04-06T06:18:05;21.60;99.90
16392;DHT22;8305;-33.882;151.134;2023-04-06T06:20:36;21.60;99.90
16392;DHT22;8305;-33.882;151.134;2023-04-06T06:23:07;21.50;99.90
16392;DHT22;8305;-33.882;151.134;2023-04-06T06:25:41;21.60;99.90
16392;DHT22;8305;-33.882;151.134;2023-04-06T06:28:12;21.50;99.90
16392;DHT22;8305;-33.882;151.134;2023-04-06T06:30:43;21.50;99.90
16392;DHT22;8305;-33.882;151.134;2023-04-06T06:33:14;21.50;99.90
16392;DHT22;8305;-33.882;151.134;2023-04-06T06:35:45;21.50;99.90
16392;DHT22;8305;-33.882;151.134;2023-04-06T06:38:16;21.50;99.90
16392;DHT22;8305;-33.882;151.134;2023-04-06T06:40:50;21.40;99.90
16392;DHT22;8305;-33.882;151.134;2023-04-06T06:43:21;21.40;99.90
16392;DHT22;8305;-33.882;151.134;2023-04-06T06:45:52;21.40;99.90
16392;DHT22;8305;-33.882;151.134;2023-04-06T06:48:23;21.40;99.90
16392;DHT22;8305;-33.882;151.134;2023-04-06T06:50:55;21.30;99.90
16392;DHT22;8305;-33.882;151.134;2023-04-06T06:53:26;21.30;99.90
16392;DHT22;8305;-33.882;151.134;2023-04-06T06:55:59;21.30;99.90
16392;DHT22;8305;-33.882;151.134;2023-04-06T06:58:30;21.20;99.90
16392;DHT22;8305;-33.882;151.134;2023-04-06T07:01:01;21.20;99.90
16392;DHT22;8305;-33.882;151.134;2023-04-06T07:03:33;21.20;99.90
16392;DHT22;8305;-33.882;151.134;2023-04-06T07:06:04;21.10;99.90
16392;DHT22;8305;-33.882;151.134;2023-04-06T07:08:35;21.10;99.90
16392;DHT22;8305;-33.882;151.134;2023-04-06T07:11:08;21.10;99.90
16392;DHT22;8305;-33.882;151.134;2023-04-06T07:13:39;21.00;99.90
16392;DHT22;8305;-33.882;151.134;2023-04-06T07:16:11;21.00;99.90
16392;DHT22;8305;-33.882;151.134;2023-04-06T07:18:42;21.00;99.90
16392;DHT22;8305;-33.882;151.134;2023-04-06T07:21:13;20.90;99.90
16392;DHT22;8305;-33.882;151.134;2023-04-06T07:23:44;20.90;99.90
16392;DHT22;8305;-33.882;151.134;2023-04-06T07:26:18;20.90;99.90
16392;DHT22;8305;-33.882;151.134;2023-04-06T07:28:49;20.80;99.90
16392;DHT22;8305;-33.882;151.134;2023-04-06T07:31:20;20.80;99.90
16392;DHT22;8305;-33.882;151.134;2023-04-06T07:33:51;20.80;99.90
16392;DHT22;8305;-33.882;151.134;2023-04-06T07:36:22;20.70;99.90
16392;DHT22;8305;-33.882;151.134;2023-04-06T07:38:53;20.70;99.90
16392;DHT22;8305;-33.882;151.134;2023-04-06T07:41:27;20.70;99.90
16392;DHT22;8305;-33.882;151.134;2023-04-06T07:43:58;20.70;99.90
16392;DHT22;8305;-33.882;151.134;2023-04-06T07:46:29;20.60;99.90
16392;DHT22;8305;-33.882;151.134;2023-04-06T07:49:01;20.60;99.90
16392;DHT22;8305;-33.882;151.134;2023-04-06T07:51:32;20.60;99.90
16392;DHT22;8305;-33.882;151.134;2023-04-06T07:54:04;20.50;99.90
16392;DHT22;8305;-33.882;151.134;2023-04-06T07:56:37;20.50;99.90
16392;DHT22;8305;-33.882;151.134;2023-04-06T07:59:08;20.40;99.90
16392;DHT22;8305;-33.882;151.134;2023-04-06T08:01:39;20.40;99.90
16392;DHT22;8305;-33.882;151.134;2023-04-06T08:04:10;20.30;99.90
16392;DHT22;8305;-33.882;151.134;2023-04-06T08:06:42;20.20;99.90
16392;DHT22;8305;-33.882;151.134;2023-04-06T08:09:13;20.20;99.90
16392;DHT22;8305;-33.882;151.134;2023-04-06T08:11:46;20.10;99.90
16392;DHT22;8305;-33.882;151.134;2023-04-06T08:14:17;20.00;99.90
16392;DHT22;8305;-33.882;151.134;2023-04-06T08:16:48;19.90;99.90
16392;DHT22;8305;-33.882;151.134;2023-04-06T08:19:19;19.80;99.90
16392;DHT22;8305;-33.882;151.134;2023-04-06T08:21:51;19.80;99.90
16392;DHT22;8305;-33.882;151.134;2023-04-06T08:24:22;19.70;99.90
16392;DHT22;8305;-33.882;151.134;2023-04-06T08:26:55;19.70;99.90
16392;DHT22;8305;-33.882;151.134;2023-04-06T08:29:27;19.70;99.90
16392;DHT22;8305;-33.882;151.134;2023-04-06T08:31:58;19.60;99.90
16392;DHT22;8305;-33.882;151.134;2023-04-06T08:34:34;19.60;99.90
16392;DHT22;8305;-33.882;151.134;2023-04-06T08:37:05;19.50;99.90
16392;DHT22;8305;-33.882;151.134;2023-04-06T08:39:37;19.50;99.90
16392;DHT22;8305;-33.882;151.134;2023-04-06T08:42:19;19.40;99.90
16392;DHT22;8305;-33.882;151.134;2023-04-06T08:44:50;19.50;99.90
16392;DHT22;8305;-33.882;151.134;2023-04-06T08:47:23;19.40;99.90
16392;DHT22;8305;-33.882;151.134;2023-04-06T08:49:55;19.30;99.90
16392;DHT22;8305;-33.882;151.134;2023-04-06T08:52:26;19.30;99.90
16392;DHT22;8305;-33.882;151.134;2023-04-06T08:54:58;19.30;99.90
16392;DHT22;8305;-33.882;151.134;2023-04-06T08:57:32;19.30;99.90
16392;DHT22;8305;-33.882;151.134;2023-04-06T09:00:04;19.20;99.90
16392;DHT22;8305;-33.882;151.134;2023-04-06T09:02:39;19.20;99.90
16392;DHT22;8305;-33.882;151.134;2023-04-06T09:05:11;19.20;99.90
16392;DHT22;8305;-33.882;151.134;2023-04-06T09:07:43;19.20;99.90
16392;DHT22;8305;-33.882;151.134;2023-04-06T09:10:16;19.20;99.90
16392;DHT22;8305;-33.882;151.134;2023-04-06T09:12:50;19.20;99.90
16392;DHT22;8305;-33.882;151.134;2023-04-06T09:15:22;19.10;99.90
16392;DHT22;8305;-33.882;151.134;2023-04-06T09:17:53;19.10;99.90
16392;DHT22;8305;-33.882;151.134;2023-04-06T09:20:25;19.00;99.90
16392;DHT22;8305;-33.882;151.134;2023-04-06T09:22:56;19.00;99.90
16392;DHT22;8305;-33.882;151.134;2023-04-06T09:25:28;19.00;99.90
16392;DHT22;8305;-33.882;151.134;2023-04-06T09:28:03;19.00;99.90
16392;DHT22;8305;-33.882;151.134;2023-04-06T09:30:34;19.00;99.90
16392;DHT22;8305;-33.882;151.134;2023-04-06T09:33:06;19.00;99.90
16392;DHT22;8305;-33.882;151.134;2023-04-06T09:35:37;18.90;99.90
16392;DHT22;8305;-33.882;151.134;2023-04-06T09:38:12;19.00;99.90
16392;DHT22;8305;-33.882;151.134;2023-04-06T09:40:50;18.90;99.90
16392;DHT22;8305;-33.882;151.134;2023-04-06T09:43:30;18.90;99.90
16392;DHT22;8305;-33.882;151.134;2023-04-06T09:46:02;18.80;99.90
16392;DHT22;8305;-33.882;151.134;2023-04-06T09:48:36;18.80;99.90
16392;DHT22;8305;-33.882;151.134;2023-04-06T09:51:08;18.70;99.90
16392;DHT22;8305;-33.882;151.134;2023-04-06T09:53:43;18.70;99.90
16392;DHT22;8305;-33.882;151.134;2023-04-06T09:56:18;18.70;99.90
16392;DHT22;8305;-33.882;151.134;2023-04-06T09:58:56;18.60;99.90
16392;DHT22;8305;-33.882;151.134;2023-04-06T10:01:30;18.60;99.90
16392;DHT22;8305;-33.882;151.134;2023-04-06T10:04:16;18.60;99.90
16392;DHT22;8305;-33.882;151.134;2023-04-06T10:06:50;18.60;99.90
16392;DHT22;8305;-33.882;151.134;2023-04-06T10:09:24;18.60;99.90
16392;DHT22;8305;-33.882;151.134;2023-04-06T10:11:56;18.60;99.90
16392;DHT22;8305;-33.882;151.134;2023-04-06T10:14:32;18.50;99.90
16392;DHT22;8305;-33.882;151.134;2023-04-06T10:17:05;18.50;99.90
16392;DHT22;8305;-33.882;151.134;2023-04-06T10:19:51;18.50;99.90
16392;DHT22;8305;-33.882;151.134;2023-04-06T10:22:29;18.50;99.90
16392;DHT22;8305;-33.882;151.134;2023-04-06T10:25:03;18.50;99.90
16392;DHT22;8305;-33.882;151.134;2023-04-06T10:27:35;18.50;99.90
16392;DHT22;8305;-33.882;151.134;2023-04-06T10:30:08;18.40;99.90
16392;DHT22;8305;-33.882;151.134;2023-04-06T10:32:40;18.40;99.90
16392;DHT22;8305;-33.882;151.134;2023-04-06T10:35:12;18.40;99.90
16392;DHT22;8305;-33.882;151.134;2023-04-06T10:38:00;18.50;99.90
16392;DHT22;8305;-33.882;151.134;2023-04-06T10:40:31;18.40;99.90
16392;DHT22;8305;-33.882;151.134;2023-04-06T10:43:09;18.40;99.90
16392;DHT22;8305;-33.882;151.134;2023-04-06T10:45:42;18.40;99.90
16392;DHT22;8305;-33.882;151.134;2023-04-06T10:48:16;18.40;99.90
16392;DHT22;8305;-33.882;151.134;2023-04-06T10:50:50;18.30;99.90
16392;DHT22;8305;-33.882;151.134;2023-04-06T10:53:26;18.30;99.90
16392;DHT22;8305;-33.882;151.134;2023-04-06T10:55:57;18.30;99.90
16392;DHT22;8305;-33.882;151.134;2023-04-06T10:58:29;18.30;99.90
16392;DHT22;8305;-33.882;151.134;2023-04-06T11:01:02;18.30;99.90
16392;DHT22;8305;-33.882;151.134;2023-04-06T11:03:44;18.30;99.90
16392;DHT22;8305;-33.882;151.134;2023-04-06T11:06:25;18.20;99.90
16392;DHT22;8305;-33.882;151.134;2023-04-06T11:08:57;18.20;99.90
16392;DHT22;8305;-33.882;151.134;2023-04-06T11:11:28;18.20;99.90
16392;DHT22;8305;-33.882;151.134;2023-04-06T11:14:00;18.20;99.90
16392;DHT22;8305;-33.882;151.134;2023-04-06T11:16:33;18.20;99.90
16392;DHT22;8305;-33.882;151.134;2023-04-06T11:19:06;18.10;99.90
16392;DHT22;8305;-33.882;151.134;2023-04-06T11:21:40;18.10;99.90
16392;DHT22;8305;-33.882;151.134;2023-04-06T11:24:12;18.10;99.90
16392;DHT22;8305;-33.882;151.134;2023-04-06T11:26:45;18.00;99.90
16392;DHT22;8305;-33.882;151.134;2023-04-06T11:29:20;18.00;99.90
16392;DHT22;8305;-33.882;151.134;2023-04-06T11:31:57;18.00;99.90
16392;DHT22;8305;-33.882;151.134;2023-04-06T11:34:30;17.90;99.90
16392;DHT22;8305;-33.882;151.134;2023-04-06T11:37:02;17.90;99.90
16392;DHT22;8305;-33.882;151.134;2023-04-06T11:39:38;17.90;99.90
16392;DHT22;8305;-33.882;151.134;2023-04-06T11:42:10;17.90;99.90
16392;DHT22;8305;-33.882;151.134;2023-04-06T11:44:43;17.90;99.90
16392;DHT22;8305;-33.882;151.134;2023-04-06T11:47:18;17.90;99.90
16392;DHT22;8305;-33.882;151.134;2023-04-06T11:49:50;17.90;99.90
16392;DHT22;8305;-33.882;151.134;2023-04-06T11:52:23;17.90;99.90
16392;DHT22;8305;-33.882;151.134;2023-04-06T11:54:55;17.90;99.90
16392;DHT22;8305;-33.882;151.134;2023-04-06T11:57:27;17.90;99.90
16392;DHT22;8305;-33.882;151.134;2023-04-06T11:59:58;17.80;99.90
16392;DHT22;8305;-33.882;151.134;2023-04-06T12:02:31;17.90;99.90
16392;DHT22;8305;-33.882;151.134;2023-04-06T12:05:02;17.80;99.90
16392;DHT22;8305;-33.882;151.134;2023-04-06T12:07:34;17.80;99.90
16392;DHT22;8305;-33.882;151.134;2023-04-06T12:10:05;17.80;99.90
16392;DHT22;8305;-33.882;151.134;2023-04-06T12:12:36;17.80;99.90
16392;DHT22;8305;-33.882;151.134;2023-04-06T12:15:08;17.80;99.90
16392;DHT22;8305;-33.882;151.134;2023-04-06T12:17:42;17.80;99.90
16392;DHT22;8305;-33.882;151.134;2023-04-06T12:20:13;17.80;99.90
16392;DHT22;8305;-33.882;151.134;2023-04-06T12:22:44;17.80;99.90
16392;DHT22;8305;-33.882;151.134;2023-04-06T12:25:15;17.80;99.90
16392;DHT22;8305;-33.882;151.134;2023-04-06T12:27:47;17.80;99.90
16392;DHT22;8305;-33.882;151.134;2023-04-06T12:30:18;17.70;99.90
16392;DHT22;8305;-33.882;151.134;2023-04-06T12:32:51;17.70;99.90
16392;DHT22;8305;-33.882;151.134;2023-04-06T12:35:22;17.70;99.90
16392;DHT22;8305;-33.882;151.134;2023-04-06T12:37:54;17.70;99.90
16392;DHT22;8305;-33.882;151.134;2023-04-06T12:40:25;17.70;99.90
16392;DHT22;8305;-33.882;151.134;2023-04-06T12:42:56;17.70;99.90
16392;DHT22;8305;-33.882;151.134;2023-04-06T12:45:27;17.60;99.90
16392;DHT22;8305;-33.882;151.134;2023-04-06T12:48:00;17.60;99.90
16392;DHT22;8305;-33.882;151.134;2023-04-06T12:50:31;17.60;99.90
16392;DHT22;8305;-33.882;151.134;2023-04-06T12:53:03;17.50;99.90
16392;DHT22;8305;-33.882;151.134;2023-04-06T12:55:34;17.50;99.90
16392;DHT22;8305;-33.882;151.134;2023-04-06T12:58:05;17.50;99.90
16392;DHT22;8305;-33.882;151.134;2023-04-06T13:00:36;17.50;99.90
16392;DHT22;8305;-33.882;151.134;2023-04-06T13:03:09;17.50;99.90
16392;DHT22;8305;-33.882;151.134;2023-04-06T13:05:45;17.50;99.90
16392;DHT22;8305;-33.882;151.134;2023-04-06T13:08:17;17.50;99.90
16392;DHT22;8305;-33.882;151.134;2023-04-06T13:10:49;17.50;99.90
16392;DHT22;8305;-33.882;151.134;2023-04-06T13:13:23;17.50;99.90
16392;DHT22;8305;-33.882;151.134;2023-04-06T13:15:55;17.50;99.90
16392;DHT22;8305;-33.882;151.134;2023-04-06T13:18:31;17.50;99.90
16392;DHT22;8305;-33.882;151.134;2023-04-06T13:21:04;17.50;99.90
16392;DHT22;8305;-33.882;151.134;2023-04-06T13:23:36;17.50;99.90
16392;DHT22;8305;-33.882;151.134;2023-04-06T13:26:08;17.40;99.90
16392;DHT22;8305;-33.882;151.134;2023-04-06T13:28:41;17.40;99.90
16392;DHT22;8305;-33.882;151.134;2023-04-06T13:31:12;17.40;99.90
16392;DHT22;8305;-33.882;151.134;2023-04-06T13:33:45;17.40;99.90
16392;DHT22;8305;-33.882;151.134;2023-04-06T13:36:16;17.40;99.90
16392;DHT22;8305;-33.882;151.134;2023-04-06T13:38:48;17.40;99.90
16392;DHT22;8305;-33.882;151.134;2023-04-06T13:41:22;17.30;99.90
16392;DHT22;8305;-33.882;151.134;2023-04-06T13:43:54;17.30;99.90
16392;DHT22;8305;-33.882;151.134;2023-04-06T13:46:25;17.30;99.90
16392;DHT22;8305;-33.882;151.134;2023-04-06T13:48:59;17.30;99.90
16392;DHT22;8305;-33.882;151.134;2023-04-06T13:51:30;17.30;99.90
16392;DHT22;8305;-33.882;151.134;2023-04-06T13:54:01;17.30;99.90
16392;DHT22;8305;-33.882;151.134;2023-04-06T13:56:32;17.30;99.90
16392;DHT22;8305;-33.882;151.134;2023-04-06T13:59:04;17.20;99.90
16392;DHT22;8305;-33.882;151.134;2023-04-06T14:01:35;17.20;99.90
16392;DHT22;8305;-33.882;151.134;2023-04-06T14:04:08;17.20;99.90
16392;DHT22;8305;-33.882;151.134;2023-04-06T14:06:39;17.20;99.90
16392;DHT22;8305;-33.882;151.134;2023-04-06T14:09:10;17.20;99.90
16392;DHT22;8305;-33.882;151.134;2023-04-06T14:11:41;17.20;99.90
16392;DHT22;8305;-33.882;151.134;2023-04-06T14:14:12;17.20;99.90
16392;DHT22;8305;-33.882;151.134;2023-04-06T14:16:43;17.10;99.90
16392;DHT22;8305;-33.882;151.134;2023-04-06T14:19:17;17.10;99.90
16392;DHT22;8305;-33.882;151.134;2023-04-06T14:21:48;17.10;99.90
16392;DHT22;8305;-33.882;151.134;2023-04-06T14:24:19;17.10;99.90
16392;DHT22;8305;-33.882;151.134;2023-04-06T14:26:50;17.10;99.90
16392;DHT22;8305;-33.882;151.134;2023-04-06T14:29:21;17.00;99.90
16392;DHT22;8305;-33.882;151.134;2023-04-06T14:31:52;16.90;99.90
16392;DHT22;8305;-33.882;151.134;2023-04-06T14:34:29;16.90;99.90
16392;DHT22;8305;-33.882;151.134;2023-04-06T14:37:00;16.90;99.90
16392;DHT22;8305;-33.882;151.134;2023-04-06T14:39:31;16.80;99.90
16392;DHT22;8305;-33.882;151.134;2023-04-06T14:42:02;16.90;99.90
16392;DHT22;8305;-33.882;151.134;2023-04-06T14:44:34;16.90;99.90
16392;DHT22;8305;-33.882;151.134;2023-04-06T14:47:10;16.90;99.90
16392;DHT22;8305;-33.882;151.134;2023-04-06T14:49:45;16.90;99.90
16392;DHT22;8305;-33.882;151.134;2023-04-06T14:52:16;16.90;99.90
16392;DHT22;8305;-33.882;151.134;2023-04-06T14:54:47;16.90;99.90
16392;DHT22;8305;-33.882;151.134;2023-04-06T14:57:18;16.80;99.90
16392;DHT22;8305;-33.882;151.134;2023-04-06T14:59:49;16.80;99.90
16392;DHT22;8305;-33.882;151.134;2023-04-06T15:02:23;16.80;99.90
16392;DHT22;8305;-33.882;151.134;2023-04-06T15:04:56;16.80;99.90
16392;DHT22;8305;-33.882;151.134;2023-04-06T15:07:27;16.80;99.90
16392;DHT22;8305;-33.882;151.134;2023-04-06T15:09:58;16.80;99.90
16392;DHT22;8305;-33.882;151.134;2023-04-06T15:12:29;16.80;99.90
16392;DHT22;8305;-33.882;151.134;2023-04-06T15:15:00;16.70;99.90
16392;DHT22;8305;-33.882;151.134;2023-04-06T15:17:31;16.70;99.90
16392;DHT22;8305;-33.882;151.134;2023-04-06T15:20:05;16.70;99.90
16392;DHT22;8305;-33.882;151.134;2023-04-06T15:22:36;16.70;99.90
16392;DHT22;8305;-33.882;151.134;2023-04-06T15:25:08;16.70;99.90
16392;DHT22;8305;-33.882;151.134;2023-04-06T15:27:39;16.70;99.90
16392;DHT22;8305;-33.882;151.134;2023-04-06T15:30:11;16.70;99.90
16392;DHT22;8305;-33.882;151.134;2023-04-06T15:32:51;16.70;99.90